Aérodrome :
LOGIN :

S'inscrire | Disclaimer

   EN    FR    IT 

 










Légende :    VFR   VFR Marginal   IFR   IFR Intensif   IFR Très Intensif
Visi : 
Plafond : 
>= 8 km
>= 3000ft
5 à 8 km
1000 à 3000 ft
1500m à 5 km
500 à 1000 ft
800 à 1500m
200 à 500 ft
< 800m
< 200 ft
Symboles :   Orages  Brouillard  Fortes neiges  Fortes précipitations  Vent > 20 kt
SIGMETs :   Divers  Orages  Givrage  Turbulence  Onde Orograph.  Cendres Volcan.






- Altitude de l'aérodrome : 295 ft
- Code IATA : ORN


DAOO - Es senia - Oran

DERNIER METAR :
  • 240430Z 21004KT 6000 SCT010 06/05 Q1028

METARs EXPIRÉS :
  • 240400Z VRB01KT 4000 BR NSC 07/05 Q1028
  • 240330Z 35003KT 300V030 4000 BR NSC 07/06 Q1028
  • 240300Z 30003KT 4000 BR NSC 08/06 Q1028
  • 240230Z 01004KT 4000 BR NSC 10/08 Q1028
  • 240200Z 04002KT 7000 NSC 10/08 Q1028

TAF TAF DAOO
Valide du 24 à 00h jusqu'au 25 à 00h UTC


232300Z 2400/2424 VRB02KT 6000 FEW010
TEMPO 2401/2409 0800 FG
BECMG 2410/2412 27010KT 8000 NSC
BECMG 2416/2418 VRB02KT 9999 FEW020
BECMG 2421/2424 26005KT 6000 NSC



MET'MAP, la Météo Aéronautique d'un coup d'oeil ! - Copyright ORBIFLY Décembre 2007 - Disclaimer

ORBIFLY MET'MAP TEAM :

Programmation & Développement : Alexandra Zaïnal
Sur une idée originale de : Baudouin d'Aumeries
Assistance à la programmation : Marc-Olivier Méhu
Soutien technique & logistique : Manuel Goepfert

Contact : metmap@orbifly.com




SOURCES & CREDITS :

   NOAA